Time;durP1;ratioP1;P1;durP2;ratioP2;P2;SDS_P1;SDS_P2;PMS_P1;PMS_P2;Temp;Humidity;BMP_temperature;BMP_pressure;BME280_temperature;BME280_humidity;BME280_pressure;Samples;Min_cycle;Max_cycle;Signal;HPM_P1;HPM_P2
2021/03/14 00:00:31;;;;;;;6.60;2.17;;;;;;;;;;5074683;28;20180;-74
2021/03/14 00:02:57;;;;;;;7.73;1.77;;;;;;;;;;5074443;28;20543;-75
2021/03/14 00:05:23;;;;;;;7.97;1.90;;;;;;;;;;5075235;28;20177;-75
2021/03/14 00:07:49;;;;;;;7.27;2.07;;;;;;;;;;5075314;28;20181;-75
2021/03/14 00:10:15;;;;;;;2.37;1.40;;;;;;;;;;5074082;28;20700;-74
2021/03/14 00:12:41;;;;;;;6.87;2.30;;;;;;;;;;5074317;28;20541;-75
2021/03/14 00:15:08;;;;;;;9.73;2.43;;;;;;;;;;5074111;28;20202;-75
2021/03/14 00:17:34;;;;;;;9.60;1.90;;;;;;;;;;5073398;28;20177;-75
2021/03/14 00:20:00;;;;;;;9.07;2.03;;;;;;;;;;5075332;28;20201;-75
2021/03/14 00:22:26;;;;;;;6.30;1.73;;;;;;;;;;5075141;28;20188;-73
2021/03/14 00:24:52;;;;;;;9.83;2.33;;;;;;;;;;5073901;28;20567;-76
2021/03/14 00:27:18;;;;;;;6.70;1.97;;;;;;;;;;5073733;28;20179;-77
2021/03/14 00:29:44;;;;;;;6.77;2.07;;;;;;;;;;5057414;28;20627;-75
2021/03/14 00:32:10;;;;;;;6.07;2.17;;;;;;;;;;5073818;28;20174;-75
2021/03/14 00:34:36;;;;;;;7.17;2.13;;;;;;;;;;5056462;28;20339;-75
2021/03/14 00:37:02;;;;;;;5.87;1.70;;;;;;;;;;5074436;28;20192;-74
2021/03/14 00:39:28;;;;;;;7.97;2.17;;;;;;;;;;5074964;28;20239;-75
2021/03/14 00:41:53;;;;;;;8.00;1.90;;;;;;;;;;5074837;28;20181;-74
2021/03/14 00:44:19;;;;;;;8.03;2.17;;;;;;;;;;5074622;28;20203;-75
2021/03/14 00:46:45;;;;;;;6.33;1.90;;;;;;;;;;5073449;28;20264;-74
2021/03/14 00:49:23;;;;;;;7.47;1.90;;;;;;;;;;5073294;28;20174;-72
2021/03/14 00:51:50;;;;;;;11.10;2.03;;;;;;;;;;5071842;28;20648;-75
2021/03/14 00:54:16;;;;;;;6.03;2.03;;;;;;;;;;5056414;28;20209;-73
2021/03/14 00:56:42;;;;;;;7.00;2.10;;;;;;;;;;5072422;28;20239;-74
2021/03/14 00:59:08;;;;;;;8.17;2.47;;;;;;;;;;5073026;28;20199;-74
2021/03/14 01:01:34;;;;;;;5.77;1.90;;;;;;;;;;5073031;28;20249;-75
2021/03/14 01:04:00;;;;;;;6.03;2.10;;;;;;;;;;5073904;28;20758;-74
2021/03/14 01:06:26;;;;;;;9.50;2.47;;;;;;;;;;5071774;28;20182;-74
2021/03/14 01:08:52;;;;;;;7.40;2.43;;;;;;;;;;5072975;28;20520;-73
2021/03/14 01:11:18;;;;;;;5.97;1.90;;;;;;;;;;5070458;28;20236;-76
2021/03/14 01:13:44;;;;;;;5.37;2.07;;;;;;;;;;5069632;28;20256;-75
2021/03/14 01:16:10;;;;;;;7.77;1.90;;;;;;;;;;5052920;28;20722;-75
2021/03/14 01:18:36;;;;;;;9.20;2.00;;;;;;;;;;5053206;28;20660;-75
2021/03/14 01:21:02;;;;;;;5.00;1.83;;;;;;;;;;5052672;28;20311;-74
2021/03/14 01:23:27;;;;;;;8.20;2.27;;;;;;;;;;5053003;28;20666;-75
2021/03/14 01:25:53;;;;;;;4.73;1.90;;;;;;;;;;5070272;28;20181;-75
2021/03/14 01:28:19;;;;;;;3.87;1.60;;;;;;;;;;5072012;28;20185;-74
2021/03/14 01:30:45;;;;;;;5.60;1.53;;;;;;;;;;5072946;28;20671;-74
2021/03/14 01:33:11;;;;;;;4.37;1.90;;;;;;;;;;5073788;28;20173;-74
2021/03/14 01:35:37;;;;;;;8.53;2.10;;;;;;;;;;5073678;28;20213;-74
2021/03/14 01:38:03;;;;;;;3.83;1.30;;;;;;;;;;5055775;28;20173;-73
2021/03/14 01:40:29;;;;;;;4.43;1.07;;;;;;;;;;5072709;28;20616;-75
2021/03/14 01:42:55;;;;;;;5.47;1.33;;;;;;;;;;5071951;28;20213;-72
2021/03/14 01:45:21;;;;;;;3.47;1.60;;;;;;;;;;5072437;28;20728;-72
2021/03/14 01:47:48;;;;;;;10.17;2.10;;;;;;;;;;5055638;28;20643;-72
2021/03/14 01:50:18;;;;;;;5.33;1.67;;;;;;;;;;5072628;28;20189;-73
2021/03/14 01:52:44;;;;;;;5.97;1.70;;;;;;;;;;5072635;28;20174;-74
2021/03/14 01:55:10;;;;;;;6.13;1.90;;;;;;;;;;5073138;28;20304;-73
2021/03/14 01:57:36;;;;;;;5.80;1.80;;;;;;;;;;5072068;28;20177;-74
2021/03/14 02:00:07;;;;;;;3.50;1.73;;;;;;;;;;5073506;28;20256;-75
2021/03/14 02:02:32;;;;;;;9.37;2.00;;;;;;;;;;5068386;28;20641;-74
2021/03/14 02:04:58;;;;;;;6.37;2.07;;;;;;;;;;5072788;28;20229;-75
2021/03/14 02:07:24;;;;;;;5.20;2.27;;;;;;;;;;5072234;28;20178;-76
2021/03/14 02:09:50;;;;;;;8.60;2.07;;;;;;;;;;5071998;28;20557;-73
2021/03/14 02:12:17;;;;;;;6.40;1.90;;;;;;;;;;5072113;28;20548;-75
2021/03/14 02:14:42;;;;;;;5.77;2.30;;;;;;;;;;5071994;28;20611;-75
2021/03/14 02:17:09;;;;;;;6.57;2.00;;;;;;;;;;5071614;28;20180;-75
2021/03/14 02:19:36;;;;;;;4.73;1.80;;;;;;;;;;5057359;28;20636;-74
2021/03/14 02:22:02;;;;;;;9.27;2.10;;;;;;;;;;5052679;28;20182;-75
2021/03/14 02:24:30;;;;;;;4.53;1.90;;;;;;;;;;5051673;28;20283;-75
2021/03/14 02:27:03;;;;;;;10.00;1.97;;;;;;;;;;5055832;28;20186;-74
2021/03/14 02:29:29;;;;;;;5.93;1.83;;;;;;;;;;5051658;28;20561;-75
2021/03/14 02:31:55;;;;;;;9.03;1.90;;;;;;;;;;5051361;28;20182;-74
2021/03/14 02:34:32;;;;;;;6.10;2.07;;;;;;;;;;5051457;28;20215;-73
2021/03/14 02:36:58;;;;;;;4.57;1.93;;;;;;;;;;5065302;28;20699;-75
2021/03/14 02:39:24;;;;;;;6.33;1.80;;;;;;;;;;5071063;28;20270;-74
2021/03/14 02:41:54;;;;;;;4.90;1.60;;;;;;;;;;5072487;28;20203;-74
2021/03/14 02:44:21;;;;;;;7.00;1.83;;;;;;;;;;5071353;28;20599;-74
2021/03/14 02:46:47;;;;;;;6.67;1.93;;;;;;;;;;5071439;28;20183;-74
2021/03/14 02:49:13;;;;;;;7.17;1.80;;;;;;;;;;5071416;28;20235;-74
2021/03/14 02:51:39;;;;;;;6.90;1.90;;;;;;;;;;5071304;28;20185;-74
2021/03/14 02:54:05;;;;;;;7.60;2.37;;;;;;;;;;5054130;28;20216;-74
2021/03/14 02:56:31;;;;;;;6.43;1.83;;;;;;;;;;5071155;28;20208;-75
2021/03/14 02:58:57;;;;;;;4.30;1.43;;;;;;;;;;5071168;28;20177;-75
2021/03/14 03:01:23;;;;;;;8.07;1.80;;;;;;;;;;5070759;28;20188;-75
2021/03/14 03:03:49;;;;;;;11.53;2.60;;;;;;;;;;5070975;28;20235;-74
2021/03/14 03:06:15;;;;;;;6.67;1.73;;;;;;;;;;5070709;28;20185;-73
2021/03/14 03:08:41;;;;;;;4.00;1.57;;;;;;;;;;5071020;28;20195;-73
2021/03/14 03:11:08;;;;;;;6.93;1.60;;;;;;;;;;5058592;28;20671;-74
2021/03/14 03:13:34;;;;;;;7.77;1.77;;;;;;;;;;5050656;28;20248;-73
2021/03/14 03:16:00;;;;;;;7.53;2.00;;;;;;;;;;5050775;28;20209;-75
2021/03/14 03:18:26;;;;;;;7.30;1.90;;;;;;;;;;5050838;28;20184;-74
2021/03/14 03:20:52;;;;;;;5.00;1.60;;;;;;;;;;5050042;28;20627;-75
2021/03/14 03:23:18;;;;;;;9.23;2.13;;;;;;;;;;5050793;28;20252;-76
2021/03/14 03:25:44;;;;;;;11.73;2.03;;;;;;;;;;5057680;28;20181;-73
2021/03/14 03:28:14;;;;;;;10.67;2.07;;;;;;;;;;5070473;28;20173;-72
2021/03/14 03:30:40;;;;;;;6.27;1.90;;;;;;;;;;5070129;28;20540;-73
2021/03/14 03:33:06;;;;;;;5.77;1.90;;;;;;;;;;5070652;28;20200;-73
2021/03/14 03:35:32;;;;;;;4.93;2.10;;;;;;;;;;5070537;28;20213;-73
2021/03/14 03:37:58;;;;;;;9.43;1.90;;;;;;;;;;5071821;28;20174;-72
2021/03/14 03:40:24;;;;;;;6.47;1.67;;;;;;;;;;5069955;28;20264;-72
2021/03/14 03:42:57;;;;;;;7.27;2.13;;;;;;;;;;5050757;28;20265;-73
2021/03/14 03:45:23;;;;;;;6.50;2.03;;;;;;;;;;5050491;28;20170;-73
2021/03/14 03:47:49;;;;;;;8.63;2.20;;;;;;;;;;5051774;28;20175;-74
2021/03/14 03:50:16;;;;;;;7.80;2.00;;;;;;;;;;5051673;28;20267;-74
2021/03/14 03:52:42;;;;;;;13.83;1.90;;;;;;;;;;5050443;28;20174;-72
2021/03/14 03:55:09;;;;;;;8.03;2.00;;;;;;;;;;5033679;28;20561;-72
2021/03/14 03:57:35;;;;;;;6.43;2.10;;;;;;;;;;5050786;28;20235;-72
2021/03/14 04:00:01;;;;;;;6.27;2.00;;;;;;;;;;5050343;28;20673;-72
2021/03/14 04:02:26;;;;;;;7.17;2.03;;;;;;;;;;5050356;28;20178;-73
2021/03/14 04:04:52;;;;;;;6.90;2.30;;;;;;;;;;5049920;28;20687;-73
2021/03/14 04:07:18;;;;;;;10.20;2.10;;;;;;;;;;5050163;28;20181;-72
2021/03/14 04:09:44;;;;;;;10.13;1.80;;;;;;;;;;5051487;28;20174;-72
2021/03/14 04:12:10;;;;;;;4.03;1.57;;;;;;;;;;5050183;28;20186;-73
2021/03/14 04:14:36;;;;;;;5.70;1.80;;;;;;;;;;5050127;28;20205;-73
2021/03/14 04:17:03;;;;;;;6.70;2.00;;;;;;;;;;5049835;28;20213;-73
2021/03/14 04:19:29;;;;;;;8.73;2.70;;;;;;;;;;5050276;28;20253;-73
2021/03/14 04:21:55;;;;;;;5.97;1.80;;;;;;;;;;5049980;28;20278;-72
2021/03/14 04:24:21;;;;;;;7.40;1.70;;;;;;;;;;5050091;28;20604;-72
2021/03/14 04:26:47;;;;;;;8.87;2.23;;;;;;;;;;5052242;28;20667;-73
2021/03/14 04:29:13;;;;;;;6.17;1.97;;;;;;;;;;5070135;28;20177;-73
2021/03/14 04:31:46;;;;;;;6.43;1.60;;;;;;;;;;5053499;28;20176;-73
2021/03/14 04:34:12;;;;;;;6.50;1.97;;;;;;;;;;5053206;28;20684;-72
2021/03/14 04:36:38;;;;;;;7.07;2.17;;;;;;;;;;5070618;28;20574;-72
2021/03/14 04:39:04;;;;;;;7.33;2.47;;;;;;;;;;5069900;28;20186;-73
2021/03/14 04:41:31;;;;;;;6.83;2.60;;;;;;;;;;5072192;28;20189;-74
2021/03/14 04:43:57;;;;;;;9.20;2.50;;;;;;;;;;5055778;28;20221;-72
2021/03/14 04:46:23;;;;;;;6.83;2.83;;;;;;;;;;5053545;28;20654;-73
2021/03/14 04:48:49;;;;;;;5.00;2.80;;;;;;;;;;5053619;28;20597;-72
2021/03/14 04:51:15;;;;;;;9.20;2.90;;;;;;;;;;5053389;28;20174;-72
2021/03/14 04:53:41;;;;;;;5.67;2.60;;;;;;;;;;5053396;28;20222;-72
2021/03/14 04:56:07;;;;;;;7.27;3.33;;;;;;;;;;5053220;28;20292;-73
2021/03/14 04:58:33;;;;;;;8.47;3.57;;;;;;;;;;5064014;28;20186;-73
2021/03/14 05:01:01;;;;;;;9.60;3.67;;;;;;;;;;5074365;28;20201;-73
2021/03/14 05:03:27;;;;;;;10.13;3.33;;;;;;;;;;5073233;28;20687;-72
2021/03/14 05:05:53;;;;;;;10.37;4.37;;;;;;;;;;5073062;28;20179;-72
2021/03/14 05:08:20;;;;;;;12.93;4.63;;;;;;;;;;5056669;28;20192;-72
2021/03/14 05:10:46;;;;;;;8.60;4.30;;;;;;;;;;5073280;28;20216;-73
2021/03/14 05:13:12;;;;;;;10.37;4.40;;;;;;;;;;5052913;28;20182;-72
2021/03/14 05:15:38;;;;;;;9.43;4.63;;;;;;;;;;5036230;28;20554;-73
2021/03/14 05:18:04;;;;;;;13.10;5.07;;;;;;;;;;5052934;28;20175;-73
2021/03/14 05:20:30;;;;;;;11.60;5.40;;;;;;;;;;5054249;28;20194;-72
2021/03/14 05:22:56;;;;;;;8.93;4.87;;;;;;;;;;5072873;28;20230;-71
2021/03/14 05:25:23;;;;;;;10.73;5.67;;;;;;;;;;5072591;28;20280;-72
2021/03/14 05:27:53;;;;;;;12.30;5.50;;;;;;;;;;5072854;28;20182;-73
2021/03/14 05:30:20;;;;;;;11.37;4.93;;;;;;;;;;5053091;28;20681;-73
2021/03/14 05:32:46;;;;;;;10.07;4.97;;;;;;;;;;5052619;28;20182;-73
2021/03/14 05:35:12;;;;;;;10.20;5.57;;;;;;;;;;5053612;28;20210;-73
2021/03/14 05:37:38;;;;;;;11.50;5.03;;;;;;;;;;5053773;28;20178;-74
2021/03/14 05:40:04;;;;;;;11.67;5.30;;;;;;;;;;5053682;28;20205;-73
2021/03/14 05:42:30;;;;;;;14.30;5.77;;;;;;;;;;5053784;28;20188;-73
2021/03/14 05:44:56;;;;;;;12.43;5.27;;;;;;;;;;5066553;28;20205;-73
2021/03/14 05:47:22;;;;;;;11.23;5.40;;;;;;;;;;5072429;28;20525;-73
2021/03/14 05:49:48;;;;;;;10.67;5.77;;;;;;;;;;5073544;28;20234;-74
2021/03/14 05:52:16;;;;;;;12.80;5.60;;;;;;;;;;5055112;28;20268;-74
2021/03/14 05:54:42;;;;;;;13.00;5.17;;;;;;;;;;5072024;28;20287;-75
2021/03/14 05:57:08;;;;;;;10.00;4.63;;;;;;;;;;5072268;28;20312;-73
2021/03/14 05:59:34;;;;;;;12.60;4.90;;;;;;;;;;5064559;28;20182;-71
2021/03/14 06:02:00;;;;;;;11.20;4.63;;;;;;;;;;5065820;28;20243;-73
2021/03/14 06:04:28;;;;;;;16.30;5.07;;;;;;;;;;5068832;28;20201;-73
2021/03/14 06:06:54;;;;;;;16.37;5.27;;;;;;;;;;5052144;28;20209;-71
2021/03/14 06:09:19;;;;;;;10.33;4.43;;;;;;;;;;5053301;28;20182;-73
2021/03/14 06:11:46;;;;;;;8.37;4.50;;;;;;;;;;5052039;28;20275;-73
2021/03/14 06:14:12;;;;;;;12.27;4.87;;;;;;;;;;5054181;28;20734;-73
2021/03/14 06:16:37;;;;;;;11.47;4.40;;;;;;;;;;5052932;28;20300;-73
2021/03/14 06:19:04;;;;;;;11.30;4.60;;;;;;;;;;5060860;28;20177;-73
2021/03/14 06:21:30;;;;;;;13.73;4.77;;;;;;;;;;5059702;28;20649;-73
2021/03/14 06:24:00;;;;;;;18.70;5.03;;;;;;;;;;5060689;28;20198;-71
2021/03/14 06:26:42;;;;;;;10.70;4.30;;;;;;;;;;5057447;28;20211;-73
2021/03/14 06:29:18;;;;;;;12.30;4.37;;;;;;;;;;5078062;28;20192;-73
2021/03/14 06:31:44;;;;;;;8.63;4.33;;;;;;;;;;5079588;28;20208;-73
2021/03/14 06:34:23;;;;;;;16.67;5.07;;;;;;;;;;5059619;28;20200;-73
2021/03/14 06:36:49;;;;;;;9.67;4.33;;;;;;;;;;5057191;28;20206;-73
2021/03/14 06:39:20;;;;;;;17.27;4.20;;;;;;;;;;5070757;28;20563;-73
2021/03/14 06:41:46;;;;;;;11.00;4.30;;;;;;;;;;5067582;28;20190;-73
2021/03/14 06:44:20;;;;;;;13.70;4.47;;;;;;;;;;5071354;28;20255;-73
2021/03/14 06:46:46;;;;;;;7.20;4.03;;;;;;;;;;5072365;28;20215;-75
2021/03/14 06:49:13;;;;;;;9.80;4.40;;;;;;;;;;5052619;28;20182;-79
2021/03/14 06:51:43;;;;;;;8.63;4.43;;;;;;;;;;5051142;28;20228;-74
2021/03/14 06:54:18;;;;;;;10.23;4.83;;;;;;;;;;5054918;28;20206;-79
2021/03/14 06:57:20;;;;;;;11.90;4.27;;;;;;;;;;5057247;28;20230;-79
2021/03/14 06:59:50;;;;;;;13.20;4.70;;;;;;;;;;5034276;28;20193;-78
2021/03/14 07:02:16;;;;;;;10.77;4.77;;;;;;;;;;5051354;28;20182;-81
2021/03/14 07:04:54;;;;;;;10.40;4.70;;;;;;;;;;5060574;28;20233;-79
2021/03/14 07:07:31;;;;;;;8.73;3.97;;;;;;;;;;5072409;28;20181;-81
2021/03/14 07:10:05;;;;;;;13.87;5.07;;;;;;;;;;5071347;28;20177;-77
2021/03/14 07:12:32;;;;;;;8.90;4.53;;;;;;;;;;5070699;28;20181;-78
2021/03/14 07:14:58;;;;;;;14.97;5.00;;;;;;;;;;5054642;28;20229;-79
2021/03/14 07:17:35;;;;;;;14.40;5.00;;;;;;;;;;5067381;28;20175;-78
2021/03/14 07:20:04;;;;;;;11.90;4.83;;;;;;;;;;5051549;28;20181;-78
2021/03/14 07:22:30;;;;;;;8.70;4.03;;;;;;;;;;5052119;28;20178;-78
2021/03/14 07:24:56;;;;;;;8.80;4.67;;;;;;;;;;5050744;28;20204;-76
2021/03/14 07:27:23;;;;;;;12.37;5.10;;;;;;;;;;5065392;28;20209;-77
2021/03/14 07:29:49;;;;;;;8.77;4.40;;;;;;;;;;5051665;28;20203;-77
2021/03/14 07:32:15;;;;;;;10.47;4.97;;;;;;;;;;5052357;28;20200;-78
2021/03/14 07:34:41;;;;;;;12.40;4.77;;;;;;;;;;5069803;28;20678;-76
2021/03/14 07:37:07;;;;;;;13.10;5.17;;;;;;;;;;5070306;28;20216;-76
2021/03/14 07:39:33;;;;;;;13.10;5.27;;;;;;;;;;5070458;28;20185;-77
2021/03/14 07:41:59;;;;;;;10.70;4.97;;;;;;;;;;5091727;28;20176;-72
2021/03/14 07:44:26;;;;;;;7.70;4.60;;;;;;;;;;5074109;28;20201;-75
2021/03/14 07:46:52;;;;;;;10.77;5.30;;;;;;;;;;5090605;28;20188;-73
2021/03/14 07:49:19;;;;;;;9.17;4.93;;;;;;;;;;5065954;28;20232;-74
2021/03/14 07:51:46;;;;;;;11.53;5.57;;;;;;;;;;5050843;28;20178;-77
2021/03/14 07:54:15;;;;;;;12.97;5.13;;;;;;;;;;5077668;28;20220;-79
2021/03/14 07:56:41;;;;;;;14.10;5.83;;;;;;;;;;5053441;28;20338;-78
2021/03/14 07:59:07;;;;;;;13.47;5.33;;;;;;;;;;5071119;28;20170;-80
2021/03/14 08:01:37;;;;;;;12.30;6.10;;;;;;;;;;5071431;28;20178;-77
2021/03/14 08:04:04;;;;;;;9.23;6.10;;;;;;;;;;5054131;28;20201;-77
2021/03/14 08:06:42;;;;;;;11.27;6.10;;;;;;;;;;5071171;28;20215;-76
2021/03/14 08:09:08;;;;;;;11.77;5.70;;;;;;;;;;5071651;28;20186;-77
2021/03/14 08:11:33;;;;;;;9.03;5.90;;;;;;;;;;5071680;28;20298;-74
2021/03/14 08:13:59;;;;;;;10.17;5.93;;;;;;;;;;5071406;28;20227;-74
2021/03/14 08:16:25;;;;;;;9.33;5.90;;;;;;;;;;5072160;28;20209;-74
2021/03/14 08:18:52;;;;;;;12.27;6.40;;;;;;;;;;5073584;28;20182;-74
2021/03/14 08:21:21;;;;;;;9.77;5.47;;;;;;;;;;5073894;28;20182;-73
2021/03/14 08:23:50;;;;;;;13.30;6.30;;;;;;;;;;5071790;28;20614;-76
2021/03/14 08:26:16;;;;;;;11.23;5.07;;;;;;;;;;5074110;28;20217;-74
2021/03/14 08:28:52;;;;;;;8.27;5.83;;;;;;;;;;5075061;28;20182;-76
2021/03/14 08:31:19;;;;;;;7.63;5.37;;;;;;;;;;5064100;28;20185;-76
2021/03/14 08:33:46;;;;;;;9.47;6.00;;;;;;;;;;5071320;28;20585;-78
2021/03/14 08:36:15;;;;;;;9.17;5.50;;;;;;;;;;5059609;28;20259;-75
2021/03/14 08:38:44;;;;;;;7.17;4.23;;;;;;;;;;5054137;28;20175;-75
2021/03/14 08:41:25;;;;;;;8.40;5.20;;;;;;;;;;5071624;28;20285;-75
2021/03/14 08:43:53;;;;;;;11.67;5.90;;;;;;;;;;5068155;28;20209;-78
2021/03/14 08:46:18;;;;;;;10.40;5.67;;;;;;;;;;5073557;28;20253;-75
2021/03/14 08:48:45;;;;;;;7.57;4.50;;;;;;;;;;5074529;28;20663;-75
2021/03/14 08:51:11;;;;;;;9.10;5.13;;;;;;;;;;5064463;28;20190;-80
2021/03/14 08:53:37;;;;;;;7.63;4.53;;;;;;;;;;5053657;28;20217;-77
2021/03/14 08:56:03;;;;;;;11.00;4.60;;;;;;;;;;5057610;28;20681;-79
2021/03/14 08:58:29;;;;;;;8.20;4.40;;;;;;;;;;5065822;28;20184;-80
2021/03/14 09:01:01;;;;;;;9.80;4.00;;;;;;;;;;5056662;28;20182;-75
2021/03/14 09:03:27;;;;;;;6.97;3.40;;;;;;;;;;5073164;28;20208;-79
2021/03/14 09:06:02;;;;;;;8.27;3.90;;;;;;;;;;5068595;28;20182;-78
2021/03/14 09:08:28;;;;;;;4.57;4.07;;;;;;;;;;5079978;28;20217;-81
2021/03/14 09:10:54;;;;;;;6.63;4.20;;;;;;;;;;5072343;28;20239;-77
2021/03/14 09:13:29;;;;;;;8.27;3.97;;;;;;;;;;5071570;28;20210;-76
2021/03/14 09:15:55;;;;;;;5.20;3.53;;;;;;;;;;5073983;28;20259;-77
2021/03/14 09:18:25;;;;;;;8.83;5.20;;;;;;;;;;5056351;28;20185;-76
2021/03/14 09:21:00;;;;;;;6.30;4.70;;;;;;;;;;5049479;28;20567;-77
2021/03/14 09:23:26;;;;;;;9.33;6.10;;;;;;;;;;5041880;28;20580;-75
2021/03/14 09:25:53;;;;;;;10.53;6.50;;;;;;;;;;5061270;28;20240;-76
2021/03/14 09:28:19;;;;;;;11.17;6.90;;;;;;;;;;5051720;28;20730;-74
2021/03/14 09:30:45;;;;;;;8.53;6.47;;;;;;;;;;5052959;28;20253;-75
2021/03/14 09:33:12;;;;;;;7.87;5.70;;;;;;;;;;5052541;28;20186;-77
2021/03/14 09:35:39;;;;;;;8.97;7.10;;;;;;;;;;5072574;28;20303;-75
2021/03/14 09:38:15;;;;;;;11.80;6.10;;;;;;;;;;5072759;28;20177;-75
2021/03/14 09:40:42;;;;;;;12.07;5.77;;;;;;;;;;5068717;28;20777;-75
2021/03/14 09:43:15;;;;;;;8.97;5.90;;;;;;;;;;5053318;28;20227;-75
2021/03/14 09:45:48;;;;;;;10.70;6.23;;;;;;;;;;5054174;28;20189;-77
2021/03/14 09:48:15;;;;;;;7.87;5.33;;;;;;;;;;5071977;28;20178;-77
2021/03/14 09:50:43;;;;;;;8.73;6.30;;;;;;;;;;5069220;28;20189;-76
2021/03/14 09:53:09;;;;;;;10.47;6.00;;;;;;;;;;5053691;28;20178;-77
2021/03/14 09:55:39;;;;;;;9.37;6.57;;;;;;;;;;5052252;28;20339;-77
2021/03/14 09:58:08;;;;;;;7.17;6.20;;;;;;;;;;5053731;28;20185;-77
2021/03/14 10:00:34;;;;;;;8.97;5.90;;;;;;;;;;5052639;28;20709;-76
2021/03/14 10:03:04;;;;;;;8.73;6.30;;;;;;;;;;5052311;28;20205;-76
2021/03/14 10:05:43;;;;;;;10.43;6.63;;;;;;;;;;5052189;28;20186;-75
2021/03/14 10:08:10;;;;;;;9.93;6.07;;;;;;;;;;5068223;28;20184;-76
2021/03/14 10:10:36;;;;;;;11.13;6.97;;;;;;;;;;5070997;28;20188;-75
2021/03/14 10:13:04;;;;;;;10.97;7.57;;;;;;;;;;5069052;28;20185;-77
2021/03/14 10:15:30;;;;;;;9.60;7.37;;;;;;;;;;5073140;28;20202;-75
2021/03/14 10:17:55;;;;;;;11.37;7.70;;;;;;;;;;5070912;28;20189;-74
2021/03/14 10:20:22;;;;;;;16.13;8.40;;;;;;;;;;5069197;28;20196;-78
2021/03/14 10:22:52;;;;;;;14.20;7.93;;;;;;;;;;5064988;28;20177;-77
2021/03/14 10:25:28;;;;;;;12.17;7.20;;;;;;;;;;5035175;28;20362;-75
2021/03/14 10:28:03;;;;;;;12.87;8.57;;;;;;;;;;5053381;28;20177;-73
2021/03/14 10:30:29;;;;;;;14.10;8.33;;;;;;;;;;5069902;28;20238;-73
2021/03/14 10:32:55;;;;;;;13.20;8.93;;;;;;;;;;5072454;28;20598;-76
2021/03/14 10:35:21;;;;;;;11.70;8.57;;;;;;;;;;5071929;28;20225;-73
2021/03/14 10:37:47;;;;;;;12.17;9.10;;;;;;;;;;5055912;28;20232;-79
2021/03/14 10:40:19;;;;;;;12.63;8.17;;;;;;;;;;5079850;28;20203;-76
2021/03/14 10:42:47;;;;;;;11.33;8.93;;;;;;;;;;5077089;28;20292;-73
2021/03/14 10:45:14;;;;;;;10.00;8.50;;;;;;;;;;5075640;28;20198;-77
2021/03/14 10:47:40;;;;;;;11.73;8.70;;;;;;;;;;5069703;28;20177;-75
2021/03/14 10:50:07;;;;;;;15.30;9.37;;;;;;;;;;5062704;28;20694;-76
2021/03/14 10:52:33;;;;;;;11.83;8.60;;;;;;;;;;5061635;28;20780;-74
2021/03/14 10:54:59;;;;;;;14.17;8.90;;;;;;;;;;5068394;28;20209;-74
2021/03/14 10:57:25;;;;;;;11.17;8.17;;;;;;;;;;5077858;28;20185;-72
2021/03/14 10:59:51;;;;;;;12.50;8.00;;;;;;;;;;5070992;28;20181;-73
2021/03/14 11:02:20;;;;;;;16.03;7.57;;;;;;;;;;5072203;28;20609;-73
2021/03/14 11:04:53;;;;;;;14.03;7.60;;;;;;;;;;5070809;28;20692;-73
2021/03/14 11:07:26;;;;;;;12.57;7.27;;;;;;;;;;5068659;28;20189;-73
2021/03/14 11:09:52;;;;;;;9.27;7.67;;;;;;;;;;5070762;28;20256;-74
2021/03/14 11:12:34;;;;;;;11.83;6.70;;;;;;;;;;5070698;28;20564;-74
2021/03/14 11:15:00;;;;;;;10.17;7.60;;;;;;;;;;5054103;28;20204;-73
2021/03/14 11:17:30;;;;;;;9.57;6.60;;;;;;;;;;5060473;28;20257;-74
2021/03/14 11:19:55;;;;;;;10.40;6.53;;;;;;;;;;5050761;28;20193;-72
2021/03/14 11:22:21;;;;;;;13.13;7.30;;;;;;;;;;5050663;28;20728;-74
2021/03/14 11:24:48;;;;;;;10.83;7.03;;;;;;;;;;5064390;28;20315;-74
2021/03/14 11:27:14;;;;;;;9.33;6.70;;;;;;;;;;5071680;28;20548;-74
2021/03/14 11:29:40;;;;;;;12.23;6.60;;;;;;;;;;5053208;28;20622;-74
2021/03/14 11:32:09;;;;;;;11.03;7.17;;;;;;;;;;5065498;28;20584;-75
2021/03/14 11:34:35;;;;;;;12.83;7.13;;;;;;;;;;5055993;28;20268;-74
2021/03/14 11:37:01;;;;;;;11.40;6.63;;;;;;;;;;5052611;28;20912;-74
2021/03/14 11:39:27;;;;;;;10.90;6.80;;;;;;;;;;5070322;28;20257;-73
2021/03/14 11:41:53;;;;;;;9.60;6.57;;;;;;;;;;5070907;28;20174;-73
2021/03/14 11:44:19;;;;;;;10.37;6.80;;;;;;;;;;5070501;28;20228;-72
2021/03/14 11:46:45;;;;;;;9.93;6.53;;;;;;;;;;5070535;28;20177;-72
2021/03/14 11:49:11;;;;;;;7.67;6.40;;;;;;;;;;5069714;28;20186;-72
2021/03/14 11:51:37;;;;;;;9.33;6.80;;;;;;;;;;5069905;28;20185;-72
2021/03/14 11:54:03;;;;;;;8.87;6.30;;;;;;;;;;5071372;28;20210;-72
2021/03/14 11:56:29;;;;;;;8.97;6.77;;;;;;;;;;5054686;28;20202;-74
2021/03/14 11:58:58;;;;;;;7.57;4.93;;;;;;;;;;5056353;28;20174;-73
2021/03/14 12:01:27;;;;;;;9.00;5.77;;;;;;;;;;5073963;28;20177;-77
2021/03/14 12:03:53;;;;;;;9.43;6.60;;;;;;;;;;5051074;28;20198;-76
2021/03/14 12:06:20;;;;;;;8.00;6.47;;;;;;;;;;5035669;28;20189;-77
2021/03/14 12:08:46;;;;;;;11.93;7.10;;;;;;;;;;5050175;28;20189;-75
2021/03/14 12:11:12;;;;;;;8.03;5.97;;;;;;;;;;5063519;28;20260;-74
2021/03/14 12:13:38;;;;;;;10.80;6.50;;;;;;;;;;5069936;28;20699;-73
2021/03/14 12:16:04;;;;;;;12.90;7.13;;;;;;;;;;5053433;28;20671;-72
2021/03/14 12:18:31;;;;;;;13.13;6.70;;;;;;;;;;5053170;28;20210;-73
2021/03/14 12:20:57;;;;;;;9.77;6.60;;;;;;;;;;5065600;28;20190;-72
2021/03/14 12:23:23;;;;;;;12.37;6.53;;;;;;;;;;5070777;28;20223;-71
2021/03/14 12:25:49;;;;;;;7.17;6.03;;;;;;;;;;5070241;28;20185;-73
2021/03/14 12:28:15;;;;;;;9.23;6.07;;;;;;;;;;5065814;28;20184;-73
2021/03/14 12:30:41;;;;;;;11.90;6.40;;;;;;;;;;5069323;28;20229;-73
2021/03/14 12:33:07;;;;;;;8.20;5.07;;;;;;;;;;5070142;28;20180;-74
2021/03/14 12:35:33;;;;;;;9.67;5.13;;;;;;;;;;5070018;28;20206;-71
2021/03/14 12:37:59;;;;;;;9.07;5.73;;;;;;;;;;5069964;28;20685;-73
2021/03/14 12:40:25;;;;;;;4.40;4.00;;;;;;;;;;5070179;28;20264;-77
2021/03/14 12:42:51;;;;;;;6.33;4.87;;;;;;;;;;5070115;28;20252;-74
2021/03/14 12:45:19;;;;;;;10.23;5.90;;;;;;;;;;5070422;28;20293;-74
2021/03/14 12:47:45;;;;;;;8.47;5.07;;;;;;;;;;5053891;28;20178;-76
2021/03/14 12:50:12;;;;;;;11.23;5.57;;;;;;;;;;5070008;28;20307;-75
2021/03/14 12:52:38;;;;;;;8.63;5.33;;;;;;;;;;5050080;28;20554;-76
2021/03/14 12:55:05;;;;;;;6.90;4.73;;;;;;;;;;5067205;28;20266;-75
2021/03/14 12:57:31;;;;;;;9.50;5.23;;;;;;;;;;5054665;28;20186;-74
2021/03/14 12:59:57;;;;;;;6.97;4.40;;;;;;;;;;5050036;28;20178;-72
2021/03/14 13:02:23;;;;;;;6.43;4.70;;;;;;;;;;5057789;28;20182;-75
2021/03/14 13:04:49;;;;;;;7.30;5.23;;;;;;;;;;5073593;28;20197;-75
2021/03/14 13:07:15;;;;;;;5.93;4.30;;;;;;;;;;5074105;28;20182;-74
2021/03/14 13:09:40;;;;;;;6.43;3.80;;;;;;;;;;5074809;28;20162;-74
2021/03/14 13:12:08;;;;;;;5.43;3.60;;;;;;;;;;5073203;28;20183;-72
2021/03/14 13:14:34;;;;;;;6.90;2.97;;;;;;;;;;5060428;28;20206;-76
2021/03/14 13:17:00;;;;;;;5.70;4.10;;;;;;;;;;5055589;28;20289;-72
2021/03/14 13:19:26;;;;;;;5.67;4.17;;;;;;;;;;5053213;28;20268;-74
2021/03/14 13:21:52;;;;;;;7.23;4.10;;;;;;;;;;5053199;28;20189;-75
2021/03/14 13:24:18;;;;;;;8.13;4.30;;;;;;;;;;5085077;28;20203;-75
2021/03/14 13:26:44;;;;;;;6.10;4.00;;;;;;;;;;5085749;28;20250;-76
2021/03/14 13:29:10;;;;;;;5.70;3.50;;;;;;;;;;5077710;28;20185;-75
2021/03/14 13:31:36;;;;;;;7.57;3.93;;;;;;;;;;5076879;28;20268;-74
2021/03/14 13:34:02;;;;;;;6.93;4.40;;;;;;;;;;5081660;28;20208;-76
2021/03/14 13:36:31;;;;;;;4.90;4.07;;;;;;;;;;5083211;28;20201;-77
2021/03/14 13:38:57;;;;;;;6.37;3.87;;;;;;;;;;5076308;28;20177;-74
2021/03/14 13:41:23;;;;;;;6.63;4.00;;;;;;;;;;5082577;28;20535;-74
2021/03/14 13:43:49;;;;;;;7.43;3.50;;;;;;;;;;5056029;28;20197;-74
2021/03/14 13:46:15;;;;;;;5.23;3.27;;;;;;;;;;5072593;28;20558;-72
2021/03/14 13:48:44;;;;;;;7.00;3.30;;;;;;;;;;5073677;28;20178;-72
2021/03/14 13:51:10;;;;;;;5.47;3.10;;;;;;;;;;5072675;28;20213;-71
2021/03/14 13:53:36;;;;;;;3.30;2.20;;;;;;;;;;5072038;28;20284;-75
2021/03/14 13:56:04;;;;;;;2.70;2.37;;;;;;;;;;5071877;28;20209;-71
2021/03/14 13:58:30;;;;;;;2.30;2.03;;;;;;;;;;5071534;28;20178;-72
2021/03/14 14:00:56;;;;;;;2.37;1.63;;;;;;;;;;5073405;28;20708;-71
2021/03/14 14:03:22;;;;;;;1.87;1.40;;;;;;;;;;5072109;28;20251;-71
2021/03/14 14:05:48;;;;;;;1.73;1.53;;;;;;;;;;5073155;28;20174;-71
2021/03/14 14:08:14;;;;;;;4.17;1.40;;;;;;;;;;5073214;28;20711;-71
2021/03/14 14:10:40;;;;;;;1.67;1.43;;;;;;;;;;5072004;28;20686;-71
2021/03/14 14:13:06;;;;;;;2.40;1.00;;;;;;;;;;5071523;28;20640;-71
2021/03/14 14:15:32;;;;;;;2.20;1.80;;;;;;;;;;5072916;28;20240;-71
2021/03/14 14:17:58;;;;;;;2.17;1.70;;;;;;;;;;5071654;28;20173;-71
2021/03/14 14:20:24;;;;;;;2.80;1.97;;;;;;;;;;5071581;28;20185;-71
2021/03/14 14:22:50;;;;;;;2.63;1.77;;;;;;;;;;5071811;28;20226;-71
2021/03/14 14:25:16;;;;;;;2.20;1.70;;;;;;;;;;5072870;28;20194;-71
2021/03/14 14:27:42;;;;;;;4.80;2.33;;;;;;;;;;5071245;28;20237;-71
2021/03/14 14:30:09;;;;;;;2.63;1.90;;;;;;;;;;5072849;28;20169;-71
2021/03/14 14:32:35;;;;;;;2.73;1.87;;;;;;;;;;5071642;28;20558;-71
2021/03/14 14:35:01;;;;;;;5.63;2.40;;;;;;;;;;5054914;28;20189;-71
2021/03/14 14:37:27;;;;;;;4.83;1.63;;;;;;;;;;5072558;28;20217;-71